EXS59LV LGKR-EGNM
Flight info
| Callsign | EXS59LV |
|---|---|
| Flight time | 3h 13m |
| Altitude | 38000 |
| Route | OLGAT DCT ABADI DCT CRAYE DCT GISAM DCT UMSON DCT SAL DCT NTL DCT NAKIT DCT PEVAL DCT UPIRO DCT MOBDO DCT SOTOV P66 MOGTI DCT KPT L608 KUNOD DCT LIRSU DCT LNO N852 VELED DCT RAVLO Y70 BATLI DCT LBA |
| Aircraft | B738/M-SDE2E3FGHIRWXY/LB1 |
Departure
| Time | 2026-04-30 19:04 |
|---|---|
| Airport | Corfu Ioannis Kapodistrias International Airport (LGKR) |
Arrival
| Time | 2026-04-30 22:17 |
|---|---|
| Airport | Leeds Bradford Airport (EGNM) |
| Time | Latitude | Longitude | Altitude | Speed | Heading |
|---|---|---|---|---|---|
| 2026-04-30 18:38 | 39.60667 | 19.91359 | 20 ft | 0 kts | 79° |
| 2026-04-30 18:56 | 39.60665 | 19.91345 | 20 ft | 4 kts | 79° |
| 2026-04-30 18:57 | 39.60656 | 19.91284 | 19 ft | 1 kts | 79° |
| 2026-04-30 18:57 | 39.60654 | 19.91256 | 19 ft | 4 kts | 98° |
| 2026-04-30 18:57 | 39.60662 | 19.91230 | 19 ft | 4 kts | 148° |
| 2026-04-30 18:58 | 39.60692 | 19.91219 | 19 ft | 0 kts | 168° |
| 2026-04-30 19:00 | 39.60646 | 19.91231 | 19 ft | 9 kts | 168° |
| 2026-04-30 19:00 | 39.60588 | 19.91202 | 19 ft | 10 kts | 219° |
| 2026-04-30 19:00 | 39.60401 | 19.91160 | 18 ft | 18 kts | 168° |
| 2026-04-30 19:01 | 39.60146 | 19.91226 | 26 ft | 21 kts | 168° |
| 2026-04-30 19:01 | 39.59986 | 19.91268 | 22 ft | 25 kts | 168° |
| 2026-04-30 19:02 | 39.59641 | 19.91358 | 17 ft | 26 kts | 169° |
| 2026-04-30 19:02 | 39.59315 | 19.91441 | 15 ft | 22 kts | 168° |
| 2026-04-30 19:03 | 39.59160 | 19.91486 | 14 ft | 4 kts | 275° |
| 2026-04-30 19:03 | 39.59482 | 19.91398 | 16 ft | 87 kts | 348° |
| 2026-04-30 19:04 | 39.61482 | 19.90884 | 807 ft | 168 kts | 349° |
| 2026-04-30 19:04 | 39.63768 | 19.90308 | 2387 ft | 194 kts | 347° |
| 2026-04-30 19:05 | 39.65784 | 19.87988 | 3577 ft | 213 kts | 289° |
| 2026-04-30 19:05 | 39.65900 | 19.84050 | 4933 ft | 224 kts | 271° |
| 2026-04-30 19:06 | 39.65888 | 19.79973 | 6570 ft | 225 kts | 284° |
| 2026-04-30 19:06 | 39.66578 | 19.78185 | 7321 ft | 229 kts | 310° |
| 2026-04-30 19:06 | 39.68989 | 19.74885 | 8436 ft | 263 kts | 314° |
| 2026-04-30 19:07 | 39.71565 | 19.71475 | 10308 ft | 268 kts | 313° |
| 2026-04-30 19:07 | 39.72922 | 19.69661 | 10628 ft | 294 kts | 313° |
| 2026-04-30 19:08 | 39.75941 | 19.65604 | 11559 ft | 326 kts | 313° |
| 2026-04-30 19:08 | 39.79115 | 19.61323 | 13330 ft | 332 kts | 312° |
| 2026-04-30 19:08 | 39.80727 | 19.59144 | 14150 ft | 337 kts | 311° |
| 2026-04-30 19:09 | 39.84004 | 19.54709 | 15896 ft | 341 kts | 311° |
| 2026-04-30 19:09 | 39.85651 | 19.52479 | 16781 ft | 343 kts | 311° |
| 2026-04-30 19:09 | 39.87319 | 19.50236 | 17635 ft | 346 kts | 311° |
| 2026-04-30 19:10 | 39.90712 | 19.45690 | 19231 ft | 351 kts | 311° |
| 2026-04-30 19:10 | 39.94134 | 19.41100 | 20697 ft | 356 kts | 310° |
| 2026-04-30 19:11 | 39.95844 | 19.38801 | 21377 ft | 360 kts | 310° |
| 2026-04-30 19:11 | 39.99355 | 19.34075 | 22721 ft | 366 kts | 310° |
| 2026-04-30 19:11 | 40.01136 | 19.31673 | 23381 ft | 369 kts | 310° |
| 2026-04-30 19:12 | 40.02928 | 19.29256 | 23956 ft | 372 kts | 310° |
| 2026-04-30 19:12 | 40.04738 | 19.26812 | 24521 ft | 374 kts | 310° |
| 2026-04-30 19:12 | 40.06553 | 19.24361 | 25111 ft | 376 kts | 310° |
| 2026-04-30 19:13 | 40.10205 | 19.19421 | 26165 ft | 379 kts | 310° |
| 2026-04-30 19:13 | 40.13897 | 19.14418 | 27161 ft | 384 kts | 310° |
| 2026-04-30 19:13 | 40.15754 | 19.11898 | 27677 ft | 386 kts | 310° |
| 2026-04-30 19:14 | 40.17624 | 19.09358 | 28255 ft | 386 kts | 310° |
| 2026-04-30 19:14 | 40.19462 | 19.06862 | 28821 ft | 386 kts | 310° |
| 2026-04-30 19:14 | 40.21326 | 19.04327 | 29290 ft | 388 kts | 310° |
| 2026-04-30 19:14 | 40.23203 | 19.01772 | 29711 ft | 391 kts | 310° |
| 2026-04-30 19:15 | 40.25257 | 18.99400 | 30112 ft | 400 kts | 321° |
| 2026-04-30 19:15 | 40.29377 | 18.96502 | 30831 ft | 404 kts | 326° |
| 2026-04-30 19:15 | 40.32702 | 18.94242 | 31570 ft | 400 kts | 326° |
| 2026-04-30 19:16 | 40.34331 | 18.93125 | 31930 ft | 397 kts | 326° |
| 2026-04-30 19:16 | 40.36769 | 18.91442 | 32414 ft | 396 kts | 326° |
| 2026-04-30 19:16 | 40.41613 | 18.88066 | 33370 ft | 392 kts | 325° |
| 2026-04-30 19:17 | 40.44018 | 18.86383 | 33905 ft | 390 kts | 325° |
| 2026-04-30 19:17 | 40.48806 | 18.83023 | 34573 ft | 392 kts | 325° |
| 2026-04-30 19:17 | 40.51218 | 18.81327 | 34814 ft | 394 kts | 325° |
| 2026-04-30 19:18 | 40.55244 | 18.78495 | 35328 ft | 395 kts | 325° |
| 2026-04-30 19:18 | 40.58487 | 18.76214 | 35733 ft | 396 kts | 326° |
| 2026-04-30 19:18 | 40.60915 | 18.74504 | 36042 ft | 396 kts | 326° |
| 2026-04-30 19:19 | 40.63350 | 18.72788 | 36307 ft | 398 kts | 326° |
| 2026-04-30 19:19 | 40.65789 | 18.71066 | 36613 ft | 399 kts | 326° |
| 2026-04-30 19:19 | 40.70701 | 18.67596 | 37127 ft | 402 kts | 326° |
| 2026-04-30 19:20 | 40.73167 | 18.65853 | 37388 ft | 403 kts | 326° |
| 2026-04-30 19:20 | 40.75644 | 18.64100 | 37627 ft | 404 kts | 326° |
| 2026-04-30 19:20 | 40.80652 | 18.60668 | 38137 ft | 407 kts | 327° |
| 2026-04-30 19:21 | 40.83192 | 18.58955 | 38120 ft | 411 kts | 327° |
| 2026-04-30 19:22 | 40.93314 | 18.52108 | 38142 ft | 408 kts | 327° |
| 2026-04-30 19:23 | 41.08596 | 18.41669 | 38138 ft | 414 kts | 327° |
| 2026-04-30 19:24 | 41.16289 | 18.36394 | 38157 ft | 415 kts | 328° |
| 2026-04-30 19:25 | 41.29052 | 18.27614 | 38151 ft | 411 kts | 328° |
| 2026-04-30 19:26 | 41.39140 | 18.20643 | 38153 ft | 407 kts | 327° |
| 2026-04-30 19:27 | 41.46619 | 18.15458 | 38160 ft | 405 kts | 327° |
| 2026-04-30 19:28 | 41.53903 | 18.09813 | 38165 ft | 402 kts | 322° |
| 2026-04-30 19:29 | 41.63211 | 18.01492 | 38171 ft | 404 kts | 322° |
| 2026-04-30 19:30 | 41.72601 | 17.93140 | 38164 ft | 406 kts | 322° |
| 2026-04-30 19:31 | 41.82033 | 17.84732 | 38170 ft | 408 kts | 322° |
| 2026-04-30 19:31 | 41.89098 | 17.78413 | 38169 ft | 408 kts | 322° |
| 2026-04-30 19:32 | 41.93689 | 17.73936 | 38152 ft | 405 kts | 316° |
| 2026-04-30 19:32 | 41.97883 | 17.68878 | 38168 ft | 405 kts | 314° |
| 2026-04-30 19:33 | 42.02024 | 17.63795 | 38179 ft | 405 kts | 314° |
| 2026-04-30 19:33 | 42.06206 | 17.58702 | 38166 ft | 406 kts | 315° |
| 2026-04-30 19:34 | 42.10408 | 17.53607 | 38178 ft | 407 kts | 315° |
| 2026-04-30 19:35 | 42.16734 | 17.45941 | 38190 ft | 408 kts | 315° |
| 2026-04-30 19:35 | 42.20956 | 17.40813 | 38178 ft | 408 kts | 315° |
| 2026-04-30 19:36 | 42.25178 | 17.35676 | 38178 ft | 408 kts | 315° |
| 2026-04-30 19:36 | 42.31507 | 17.27960 | 38215 ft | 409 kts | 315° |
| 2026-04-30 19:37 | 42.35698 | 17.22837 | 38191 ft | 409 kts | 315° |
| 2026-04-30 19:37 | 42.39910 | 17.17678 | 38195 ft | 408 kts | 315° |
| 2026-04-30 19:38 | 42.44129 | 17.12503 | 38195 ft | 408 kts | 315° |
| 2026-04-30 19:38 | 42.48326 | 17.07343 | 38202 ft | 407 kts | 315° |
| 2026-04-30 19:39 | 42.52518 | 17.02177 | 38192 ft | 407 kts | 315° |
| 2026-04-30 19:39 | 42.56705 | 16.97011 | 38216 ft | 407 kts | 316° |
| 2026-04-30 19:40 | 42.60891 | 16.91836 | 38207 ft | 407 kts | 316° |
| 2026-04-30 19:40 | 42.65081 | 16.86645 | 38204 ft | 407 kts | 315° |
| 2026-04-30 19:41 | 42.69264 | 16.81453 | 38212 ft | 407 kts | 315° |
| 2026-04-30 19:41 | 42.73421 | 16.76284 | 38212 ft | 408 kts | 315° |
| 2026-04-30 19:42 | 42.77605 | 16.71071 | 38215 ft | 408 kts | 315° |
| 2026-04-30 19:42 | 42.81793 | 16.65844 | 38219 ft | 409 kts | 316° |
| 2026-04-30 19:43 | 42.85990 | 16.60596 | 38220 ft | 410 kts | 316° |
| 2026-04-30 19:44 | 42.92301 | 16.52682 | 38222 ft | 412 kts | 316° |
| 2026-04-30 19:44 | 42.96523 | 16.47376 | 38221 ft | 413 kts | 316° |
| 2026-04-30 19:45 | 43.00718 | 16.42095 | 38220 ft | 413 kts | 315° |
| 2026-04-30 19:45 | 43.04946 | 16.36762 | 38235 ft | 414 kts | 316° |
| 2026-04-30 19:46 | 43.09181 | 16.31407 | 38218 ft | 415 kts | 316° |
| 2026-04-30 19:46 | 43.13419 | 16.26040 | 38224 ft | 416 kts | 316° |
| 2026-04-30 19:47 | 43.17669 | 16.20646 | 38224 ft | 417 kts | 316° |
| 2026-04-30 19:47 | 43.21927 | 16.15231 | 38222 ft | 418 kts | 316° |
| 2026-04-30 19:48 | 43.26184 | 16.09807 | 38222 ft | 418 kts | 316° |
| 2026-04-30 19:48 | 43.30441 | 16.04371 | 38232 ft | 418 kts | 316° |
| 2026-04-30 19:49 | 43.34701 | 15.98920 | 38219 ft | 418 kts | 316° |
| 2026-04-30 19:49 | 43.41080 | 15.90738 | 38231 ft | 418 kts | 316° |
| 2026-04-30 19:50 | 43.45306 | 15.85304 | 38230 ft | 418 kts | 316° |
| 2026-04-30 19:50 | 43.49544 | 15.79844 | 38232 ft | 417 kts | 316° |
| 2026-04-30 19:51 | 43.53748 | 15.74331 | 38245 ft | 417 kts | 315° |
| 2026-04-30 19:51 | 43.57783 | 15.68580 | 38239 ft | 417 kts | 314° |
| 2026-04-30 19:52 | 43.61785 | 15.62803 | 38241 ft | 417 kts | 314° |
| 2026-04-30 19:52 | 43.65806 | 15.57039 | 38249 ft | 416 kts | 314° |
| 2026-04-30 19:53 | 43.69826 | 15.51293 | 38250 ft | 416 kts | 314° |
| 2026-04-30 19:53 | 43.73818 | 15.45582 | 38257 ft | 415 kts | 314° |
| 2026-04-30 19:54 | 43.77830 | 15.39828 | 38256 ft | 415 kts | 314° |
| 2026-04-30 19:54 | 43.81838 | 15.34065 | 38264 ft | 415 kts | 314° |
| 2026-04-30 19:55 | 43.85841 | 15.28300 | 38247 ft | 415 kts | 314° |
| 2026-04-30 19:55 | 43.89839 | 15.22532 | 38262 ft | 414 kts | 314° |
| 2026-04-30 19:56 | 43.93832 | 15.16775 | 38268 ft | 414 kts | 316° |
| 2026-04-30 19:56 | 43.98079 | 15.11456 | 38274 ft | 413 kts | 319° |
| 2026-04-30 19:57 | 44.02428 | 15.06223 | 38279 ft | 413 kts | 319° |
| 2026-04-30 19:57 | 44.06771 | 15.00959 | 38273 ft | 413 kts | 319° |
| 2026-04-30 19:58 | 44.11092 | 14.95677 | 38267 ft | 413 kts | 319° |
| 2026-04-30 19:58 | 44.15399 | 14.90387 | 38279 ft | 412 kts | 319° |
| 2026-04-30 19:59 | 44.19665 | 14.85136 | 38277 ft | 411 kts | 319° |
| 2026-04-30 20:00 | 44.26084 | 14.77216 | 38278 ft | 410 kts | 319° |
| 2026-04-30 20:00 | 44.30353 | 14.71935 | 38278 ft | 410 kts | 319° |
| 2026-04-30 20:01 | 44.36738 | 14.64016 | 38272 ft | 409 kts | 319° |
| 2026-04-30 20:01 | 44.40988 | 14.58732 | 38272 ft | 409 kts | 319° |
| 2026-04-30 20:02 | 44.47359 | 14.50790 | 38276 ft | 409 kts | 319° |
| 2026-04-30 20:03 | 44.53750 | 14.42800 | 38260 ft | 411 kts | 319° |
| 2026-04-30 20:03 | 44.57944 | 14.37422 | 38272 ft | 411 kts | 315° |
| 2026-04-30 20:04 | 44.61878 | 14.31584 | 38277 ft | 412 kts | 313° |
| 2026-04-30 20:05 | 44.67711 | 14.22660 | 38275 ft | 413 kts | 314° |
| 2026-04-30 20:05 | 44.72934 | 14.14765 | 38275 ft | 415 kts | 314° |
| 2026-04-30 20:06 | 44.76870 | 14.08828 | 38273 ft | 415 kts | 314° |
| 2026-04-30 20:06 | 44.80803 | 14.02885 | 38294 ft | 415 kts | 314° |
| 2026-04-30 20:07 | 44.84740 | 13.96925 | 38294 ft | 415 kts | 314° |
| 2026-04-30 20:08 | 44.90633 | 13.87977 | 38294 ft | 416 kts | 314° |
| 2026-04-30 20:08 | 44.94569 | 13.81985 | 38292 ft | 415 kts | 314° |
| 2026-04-30 20:09 | 44.98494 | 13.75996 | 38295 ft | 415 kts | 314° |
| 2026-04-30 20:09 | 45.04379 | 13.66992 | 38289 ft | 415 kts | 314° |
| 2026-04-30 20:10 | 45.10250 | 13.57980 | 38295 ft | 415 kts | 314° |
| 2026-04-30 20:11 | 45.16084 | 13.48996 | 38289 ft | 414 kts | 314° |
| 2026-04-30 20:11 | 45.19969 | 13.42964 | 38304 ft | 414 kts | 314° |
| 2026-04-30 20:12 | 45.25639 | 13.33713 | 38302 ft | 414 kts | 313° |
| 2026-04-30 20:13 | 45.29420 | 13.27541 | 38300 ft | 414 kts | 313° |
| 2026-04-30 20:13 | 45.33212 | 13.21402 | 38296 ft | 412 kts | 314° |
| 2026-04-30 20:14 | 45.37012 | 13.15368 | 38309 ft | 412 kts | 314° |
| 2026-04-30 20:14 | 45.40838 | 13.09285 | 38310 ft | 412 kts | 314° |
| 2026-04-30 20:15 | 45.44661 | 13.03176 | 38290 ft | 414 kts | 314° |
| 2026-04-30 20:15 | 45.48501 | 12.97023 | 38309 ft | 416 kts | 314° |
| 2026-04-30 20:16 | 45.52361 | 12.90821 | 38294 ft | 419 kts | 314° |
| 2026-04-30 20:16 | 45.56245 | 12.84567 | 38303 ft | 422 kts | 314° |
| 2026-04-30 20:17 | 45.60151 | 12.78264 | 38309 ft | 425 kts | 314° |
| 2026-04-30 20:17 | 45.64256 | 12.72204 | 38303 ft | 424 kts | 322° |
| 2026-04-30 20:18 | 45.68870 | 12.66952 | 38305 ft | 425 kts | 323° |
| 2026-04-30 20:18 | 45.73524 | 12.61714 | 38285 ft | 425 kts | 323° |
| 2026-04-30 20:19 | 45.78118 | 12.56470 | 38296 ft | 425 kts | 323° |
| 2026-04-30 20:19 | 45.82718 | 12.51172 | 38307 ft | 424 kts | 323° |
| 2026-04-30 20:20 | 45.87303 | 12.45866 | 38305 ft | 422 kts | 323° |
| 2026-04-30 20:20 | 45.91870 | 12.40569 | 38319 ft | 421 kts | 324° |
| 2026-04-30 20:21 | 45.96422 | 12.35277 | 38313 ft | 420 kts | 323° |
| 2026-04-30 20:21 | 46.00924 | 12.30035 | 38306 ft | 419 kts | 324° |
| 2026-04-30 20:22 | 46.05446 | 12.24761 | 38328 ft | 418 kts | 324° |
| 2026-04-30 20:22 | 46.09968 | 12.19471 | 38312 ft | 419 kts | 324° |
| 2026-04-30 20:23 | 46.14493 | 12.14169 | 38313 ft | 419 kts | 324° |
| 2026-04-30 20:23 | 46.19016 | 12.08859 | 38317 ft | 419 kts | 324° |
| 2026-04-30 20:24 | 46.23541 | 12.03531 | 38287 ft | 420 kts | 324° |
| 2026-04-30 20:24 | 46.28041 | 11.98224 | 38304 ft | 420 kts | 324° |
| 2026-04-30 20:25 | 46.34843 | 11.90174 | 38326 ft | 421 kts | 324° |
| 2026-04-30 20:26 | 46.41655 | 11.82091 | 38304 ft | 422 kts | 324° |
| 2026-04-30 20:26 | 46.48564 | 11.74109 | 38280 ft | 424 kts | 325° |
| 2026-04-30 20:27 | 46.57832 | 11.63525 | 38274 ft | 423 kts | 325° |
| 2026-04-30 20:28 | 46.67068 | 11.52882 | 38262 ft | 423 kts | 325° |
| 2026-04-30 20:30 | 46.78555 | 11.39578 | 38247 ft | 422 kts | 326° |
| 2026-04-30 20:31 | 46.92357 | 11.23494 | 38254 ft | 424 kts | 326° |
| 2026-04-30 20:32 | 47.04626 | 11.11664 | 38260 ft | 422 kts | 332° |
| 2026-04-30 20:33 | 47.11870 | 11.04401 | 38275 ft | 425 kts | 326° |
| 2026-04-30 20:34 | 47.18691 | 10.96073 | 38278 ft | 424 kts | 325° |
| 2026-04-30 20:35 | 47.25535 | 10.87801 | 38272 ft | 423 kts | 326° |
| 2026-04-30 20:35 | 47.32354 | 10.79603 | 38280 ft | 420 kts | 326° |
| 2026-04-30 20:36 | 47.36878 | 10.74148 | 38276 ft | 419 kts | 326° |
| 2026-04-30 20:37 | 47.43812 | 10.66526 | 38286 ft | 415 kts | 331° |
| 2026-04-30 20:37 | 47.48593 | 10.61740 | 38300 ft | 415 kts | 331° |
| 2026-04-30 20:38 | 47.53357 | 10.56911 | 38266 ft | 415 kts | 331° |
| 2026-04-30 20:38 | 47.58107 | 10.52042 | 38299 ft | 415 kts | 331° |
| 2026-04-30 20:39 | 47.65213 | 10.44713 | 38289 ft | 415 kts | 330° |
| 2026-04-30 20:40 | 47.72344 | 10.37341 | 38309 ft | 417 kts | 330° |
| 2026-04-30 20:40 | 47.77007 | 10.32253 | 38303 ft | 421 kts | 327° |
| 2026-04-30 20:41 | 47.83808 | 10.23887 | 38322 ft | 424 kts | 326° |
| 2026-04-30 20:41 | 47.88341 | 10.18286 | 38284 ft | 424 kts | 326° |
| 2026-04-30 20:42 | 47.92881 | 10.12705 | 38319 ft | 423 kts | 326° |
| 2026-04-30 20:43 | 47.99718 | 10.04312 | 38324 ft | 425 kts | 326° |
| 2026-04-30 20:43 | 48.04249 | 9.98738 | 38317 ft | 425 kts | 326° |
| 2026-04-30 20:44 | 48.11110 | 9.90266 | 38326 ft | 424 kts | 326° |
| 2026-04-30 20:45 | 48.20169 | 9.79031 | 38317 ft | 424 kts | 326° |
| 2026-04-30 20:45 | 48.24715 | 9.73373 | 38321 ft | 424 kts | 326° |
| 2026-04-30 20:46 | 48.33802 | 9.62009 | 38321 ft | 426 kts | 324° |
| 2026-04-30 20:47 | 48.40022 | 9.52238 | 38322 ft | 432 kts | 318° |
| 2026-04-30 20:48 | 48.46073 | 9.42236 | 38323 ft | 432 kts | 318° |
| 2026-04-30 20:48 | 48.50159 | 9.35550 | 38324 ft | 434 kts | 318° |
| 2026-04-30 20:49 | 48.54264 | 9.28847 | 38320 ft | 435 kts | 318° |
| 2026-04-30 20:50 | 48.60404 | 9.18798 | 38324 ft | 436 kts | 318° |
| 2026-04-30 20:50 | 48.64513 | 9.12049 | 38302 ft | 436 kts | 317° |
| 2026-04-30 20:51 | 48.68615 | 9.05297 | 38326 ft | 436 kts | 317° |
| 2026-04-30 20:51 | 48.74767 | 8.95137 | 38322 ft | 437 kts | 317° |
| 2026-04-30 20:52 | 48.78873 | 8.88335 | 38319 ft | 437 kts | 317° |
| 2026-04-30 20:53 | 48.85029 | 8.78101 | 38321 ft | 437 kts | 317° |
| 2026-04-30 20:53 | 48.89105 | 8.71302 | 38308 ft | 438 kts | 316° |
| 2026-04-30 20:54 | 48.95254 | 8.61008 | 38314 ft | 438 kts | 316° |
| 2026-04-30 20:55 | 49.01408 | 8.50670 | 38317 ft | 440 kts | 316° |
| 2026-04-30 20:55 | 49.05515 | 8.43748 | 38307 ft | 441 kts | 316° |
| 2026-04-30 20:56 | 49.10990 | 8.34489 | 38307 ft | 442 kts | 316° |
| 2026-04-30 20:57 | 49.17167 | 8.24005 | 38309 ft | 442 kts | 316° |
| 2026-04-30 20:57 | 49.21277 | 8.17005 | 38312 ft | 442 kts | 316° |
| 2026-04-30 20:58 | 49.27433 | 8.06482 | 38324 ft | 442 kts | 316° |
| 2026-04-30 20:58 | 49.31526 | 7.99464 | 38301 ft | 441 kts | 315° |
| 2026-04-30 20:59 | 49.37618 | 7.88987 | 38304 ft | 440 kts | 315° |
| 2026-04-30 21:00 | 49.45743 | 7.74940 | 38312 ft | 439 kts | 315° |
| 2026-04-30 21:01 | 49.51815 | 7.64396 | 38307 ft | 439 kts | 315° |
| 2026-04-30 21:02 | 49.57881 | 7.53819 | 38309 ft | 438 kts | 314° |
| 2026-04-30 21:02 | 49.61893 | 7.46798 | 38318 ft | 439 kts | 314° |
| 2026-04-30 21:03 | 49.65931 | 7.39713 | 38335 ft | 440 kts | 314° |
| 2026-04-30 21:03 | 49.69972 | 7.32605 | 38321 ft | 441 kts | 314° |
| 2026-04-30 21:04 | 49.74016 | 7.25470 | 38322 ft | 442 kts | 314° |
| 2026-04-30 21:04 | 49.80089 | 7.14712 | 38318 ft | 442 kts | 314° |
| 2026-04-30 21:05 | 49.84133 | 7.07534 | 38309 ft | 443 kts | 313° |
| 2026-04-30 21:05 | 49.88180 | 7.00326 | 38315 ft | 443 kts | 313° |
| 2026-04-30 21:06 | 49.92225 | 6.93102 | 38308 ft | 444 kts | 313° |
| 2026-04-30 21:06 | 49.96247 | 6.85897 | 38304 ft | 445 kts | 313° |
| 2026-04-30 21:07 | 50.00295 | 6.78625 | 38291 ft | 445 kts | 313° |
| 2026-04-30 21:07 | 50.04341 | 6.71338 | 38307 ft | 445 kts | 313° |
| 2026-04-30 21:08 | 50.08384 | 6.64033 | 38299 ft | 445 kts | 313° |
| 2026-04-30 21:08 | 50.12420 | 6.56722 | 38304 ft | 444 kts | 313° |
| 2026-04-30 21:09 | 50.16425 | 6.49449 | 38291 ft | 444 kts | 313° |
| 2026-04-30 21:09 | 50.20464 | 6.42079 | 38291 ft | 444 kts | 312° |
| 2026-04-30 21:10 | 50.24432 | 6.34773 | 38300 ft | 443 kts | 311° |
| 2026-04-30 21:10 | 50.28418 | 6.27408 | 38298 ft | 443 kts | 312° |
| 2026-04-30 21:11 | 50.32402 | 6.20031 | 38301 ft | 443 kts | 312° |
| 2026-04-30 21:11 | 50.36386 | 6.12634 | 38303 ft | 444 kts | 312° |
| 2026-04-30 21:12 | 50.40366 | 6.05225 | 38306 ft | 444 kts | 311° |
| 2026-04-30 21:12 | 50.44344 | 5.97798 | 38293 ft | 444 kts | 311° |
| 2026-04-30 21:13 | 50.48288 | 5.90409 | 38296 ft | 444 kts | 311° |
| 2026-04-30 21:13 | 50.52257 | 5.82959 | 38297 ft | 445 kts | 311° |
| 2026-04-30 21:14 | 50.56249 | 5.75521 | 38293 ft | 445 kts | 315° |
| 2026-04-30 21:14 | 50.58581 | 5.72354 | 38299 ft | 442 kts | 327° |
| 2026-04-30 21:14 | 50.61234 | 5.69923 | 38298 ft | 440 kts | 336° |
| 2026-04-30 21:15 | 50.67017 | 5.67063 | 38299 ft | 438 kts | 347° |
| 2026-04-30 21:15 | 50.72950 | 5.64585 | 38296 ft | 439 kts | 347° |
| 2026-04-30 21:16 | 50.78812 | 5.62084 | 38287 ft | 439 kts | 346° |
| 2026-04-30 21:16 | 50.84713 | 5.59535 | 38291 ft | 439 kts | 346° |
| 2026-04-30 21:17 | 50.90609 | 5.56981 | 38298 ft | 440 kts | 346° |
| 2026-04-30 21:17 | 50.96513 | 5.54417 | 38299 ft | 440 kts | 346° |
| 2026-04-30 21:18 | 51.02426 | 5.51844 | 38299 ft | 440 kts | 346° |
| 2026-04-30 21:18 | 51.08335 | 5.49265 | 38301 ft | 440 kts | 346° |
| 2026-04-30 21:19 | 51.14250 | 5.46677 | 38296 ft | 441 kts | 346° |
| 2026-04-30 21:19 | 51.20174 | 5.44182 | 38293 ft | 440 kts | 349° |
| 2026-04-30 21:20 | 51.26132 | 5.42226 | 38301 ft | 439 kts | 350° |
| 2026-04-30 21:20 | 51.32060 | 5.39809 | 38304 ft | 440 kts | 345° |
| 2026-04-30 21:21 | 51.37881 | 5.36798 | 38312 ft | 441 kts | 336° |
| 2026-04-30 21:21 | 51.43006 | 5.31428 | 38330 ft | 442 kts | 320° |
| 2026-04-30 21:22 | 51.45334 | 5.28193 | 38321 ft | 443 kts | 319° |
| 2026-04-30 21:23 | 51.54562 | 5.15059 | 38296 ft | 443 kts | 319° |
| 2026-04-30 21:23 | 51.61537 | 5.05254 | 38293 ft | 444 kts | 319° |
| 2026-04-30 21:24 | 51.66198 | 4.98703 | 38297 ft | 445 kts | 319° |
| 2026-04-30 21:24 | 51.70861 | 4.92128 | 38296 ft | 445 kts | 319° |
| 2026-04-30 21:25 | 51.77824 | 4.82273 | 38306 ft | 446 kts | 319° |
| 2026-04-30 21:26 | 51.84822 | 4.72322 | 38312 ft | 447 kts | 319° |
| 2026-04-30 21:27 | 51.91816 | 4.62338 | 38322 ft | 447 kts | 319° |
| 2026-04-30 21:27 | 51.96479 | 4.55656 | 38308 ft | 447 kts | 319° |
| 2026-04-30 21:28 | 52.03465 | 4.45608 | 38307 ft | 447 kts | 318° |
| 2026-04-30 21:29 | 52.10448 | 4.35522 | 38316 ft | 447 kts | 318° |
| 2026-04-30 21:30 | 52.22046 | 4.18670 | 38319 ft | 448 kts | 318° |
| 2026-04-30 21:31 | 52.33660 | 4.01666 | 38309 ft | 449 kts | 318° |
| 2026-04-30 21:32 | 52.40613 | 3.91423 | 38322 ft | 448 kts | 317° |
| 2026-04-30 21:32 | 52.45246 | 3.84579 | 38321 ft | 449 kts | 317° |
| 2026-04-30 21:33 | 52.52208 | 3.74264 | 38303 ft | 450 kts | 317° |
| 2026-04-30 21:34 | 52.56828 | 3.67389 | 38323 ft | 450 kts | 317° |
| 2026-04-30 21:34 | 52.63775 | 3.57007 | 38294 ft | 449 kts | 317° |
| 2026-04-30 21:35 | 52.68395 | 3.50077 | 38300 ft | 449 kts | 316° |
| 2026-04-30 21:35 | 52.73014 | 3.43128 | 38306 ft | 449 kts | 316° |
| 2026-04-30 21:36 | 52.77628 | 3.36166 | 38281 ft | 449 kts | 316° |
| 2026-04-30 21:37 | 52.86823 | 3.22230 | 38282 ft | 448 kts | 316° |
| 2026-04-30 21:37 | 52.90920 | 3.14628 | 38298 ft | 444 kts | 299° |
| 2026-04-30 21:38 | 52.93105 | 3.05168 | 38297 ft | 438 kts | 280° |
| 2026-04-30 21:38 | 52.94348 | 2.95265 | 38310 ft | 439 kts | 279° |
| 2026-04-30 21:39 | 52.95589 | 2.85334 | 38313 ft | 439 kts | 279° |
| 2026-04-30 21:39 | 52.96850 | 2.75494 | 38310 ft | 439 kts | 279° |
| 2026-04-30 21:40 | 52.98130 | 2.65569 | 38311 ft | 440 kts | 279° |
| 2026-04-30 21:40 | 52.99406 | 2.55632 | 38301 ft | 440 kts | 279° |
| 2026-04-30 21:41 | 53.00670 | 2.45702 | 38310 ft | 439 kts | 279° |
| 2026-04-30 21:41 | 53.01925 | 2.35767 | 38296 ft | 438 kts | 279° |
| 2026-04-30 21:42 | 53.03165 | 2.25880 | 38299 ft | 437 kts | 279° |
| 2026-04-30 21:42 | 53.04397 | 2.16000 | 38296 ft | 436 kts | 279° |
| 2026-04-30 21:43 | 53.05412 | 2.07803 | 38295 ft | 436 kts | 279° |
| 2026-04-30 21:43 | 53.06823 | 1.96324 | 37917 ft | 441 kts | 279° |
| 2026-04-30 21:44 | 53.07433 | 1.91339 | 37513 ft | 436 kts | 279° |
| 2026-04-30 21:44 | 53.08032 | 1.86430 | 37087 ft | 431 kts | 279° |
| 2026-04-30 21:44 | 53.08623 | 1.81572 | 36701 ft | 426 kts | 279° |
| 2026-04-30 21:44 | 53.09206 | 1.76765 | 36329 ft | 421 kts | 279° |
| 2026-04-30 21:45 | 53.09779 | 1.72014 | 35957 ft | 417 kts | 278° |
| 2026-04-30 21:45 | 53.10155 | 1.68892 | 35705 ft | 414 kts | 278° |
| 2026-04-30 21:45 | 53.10717 | 1.64205 | 35332 ft | 411 kts | 278° |
| 2026-04-30 21:45 | 53.11272 | 1.59563 | 34965 ft | 408 kts | 278° |
| 2026-04-30 21:46 | 53.11821 | 1.54943 | 34602 ft | 405 kts | 278° |
| 2026-04-30 21:46 | 53.12541 | 1.48880 | 34094 ft | 401 kts | 278° |
| 2026-04-30 21:46 | 53.12903 | 1.45812 | 33818 ft | 400 kts | 277° |
| 2026-04-30 21:46 | 53.13436 | 1.41289 | 33429 ft | 397 kts | 277° |
| 2026-04-30 21:47 | 53.13964 | 1.36787 | 33061 ft | 393 kts | 277° |
| 2026-04-30 21:47 | 53.14485 | 1.32334 | 32700 ft | 390 kts | 277° |
| 2026-04-30 21:47 | 53.15001 | 1.27911 | 32355 ft | 387 kts | 277° |
| 2026-04-30 21:47 | 53.15511 | 1.23524 | 32004 ft | 385 kts | 277° |
| 2026-04-30 21:48 | 53.16010 | 1.19222 | 31662 ft | 382 kts | 277° |
| 2026-04-30 21:48 | 53.16509 | 1.14895 | 31323 ft | 379 kts | 277° |
| 2026-04-30 21:48 | 53.17004 | 1.10590 | 30985 ft | 377 kts | 277° |
| 2026-04-30 21:48 | 53.17496 | 1.06303 | 30650 ft | 375 kts | 277° |
| 2026-04-30 21:49 | 53.17982 | 1.02049 | 30315 ft | 373 kts | 277° |
| 2026-04-30 21:49 | 53.18465 | 0.97814 | 29930 ft | 371 kts | 277° |
| 2026-04-30 21:49 | 53.18944 | 0.93589 | 29552 ft | 369 kts | 277° |
| 2026-04-30 21:49 | 53.19419 | 0.89392 | 29187 ft | 369 kts | 277° |
| 2026-04-30 21:50 | 53.19898 | 0.85135 | 28838 ft | 378 kts | 277° |
| 2026-04-30 21:50 | 53.20386 | 0.80772 | 28464 ft | 385 kts | 277° |
| 2026-04-30 21:50 | 53.20876 | 0.76408 | 28080 ft | 381 kts | 277° |
| 2026-04-30 21:50 | 53.21361 | 0.72081 | 27704 ft | 377 kts | 277° |
| 2026-04-30 21:51 | 53.21839 | 0.67801 | 27341 ft | 374 kts | 277° |
| 2026-04-30 21:51 | 53.22310 | 0.63559 | 26987 ft | 370 kts | 277° |
| 2026-04-30 21:51 | 53.22776 | 0.59342 | 26630 ft | 367 kts | 277° |
| 2026-04-30 21:51 | 53.23237 | 0.55146 | 26068 ft | 370 kts | 277° |
| 2026-04-30 21:52 | 53.23699 | 0.50936 | 25681 ft | 368 kts | 277° |
| 2026-04-30 21:52 | 53.24159 | 0.46743 | 25311 ft | 366 kts | 276° |
| 2026-04-30 21:52 | 53.24615 | 0.42577 | 24955 ft | 363 kts | 276° |
| 2026-04-30 21:52 | 53.25064 | 0.38425 | 24535 ft | 363 kts | 276° |
| 2026-04-30 21:53 | 53.25509 | 0.34287 | 24186 ft | 361 kts | 276° |
| 2026-04-30 21:53 | 53.25943 | 0.30227 | 23833 ft | 359 kts | 276° |
| 2026-04-30 21:53 | 53.26379 | 0.26135 | 23433 ft | 356 kts | 276° |
| 2026-04-30 21:53 | 53.26811 | 0.22077 | 23067 ft | 353 kts | 276° |
| 2026-04-30 21:54 | 53.27237 | 0.18057 | 22720 ft | 350 kts | 276° |
| 2026-04-30 21:54 | 53.27659 | 0.14077 | 22373 ft | 347 kts | 276° |
| 2026-04-30 21:54 | 53.28075 | 0.10128 | 22039 ft | 344 kts | 276° |
| 2026-04-30 21:54 | 53.28488 | 0.06200 | 21707 ft | 341 kts | 276° |
| 2026-04-30 21:55 | 53.29056 | 0.02357 | 21383 ft | 341 kts | 287° |
| 2026-04-30 21:55 | 53.30023 | -0.01253 | 21126 ft | 338 kts | 293° |
| 2026-04-30 21:55 | 53.31067 | -0.04766 | 20807 ft | 337 kts | 293° |
| 2026-04-30 21:55 | 53.32111 | -0.08252 | 20486 ft | 335 kts | 293° |
| 2026-04-30 21:56 | 53.33146 | -0.11732 | 20164 ft | 333 kts | 292° |
| 2026-04-30 21:56 | 53.34167 | -0.15196 | 19847 ft | 331 kts | 292° |
| 2026-04-30 21:56 | 53.35177 | -0.18649 | 19536 ft | 329 kts | 292° |
| 2026-04-30 21:56 | 53.36167 | -0.22051 | 19228 ft | 328 kts | 292° |
| 2026-04-30 21:57 | 53.37175 | -0.25526 | 18906 ft | 327 kts | 292° |
| 2026-04-30 21:57 | 53.38153 | -0.28898 | 18592 ft | 326 kts | 292° |
| 2026-04-30 21:57 | 53.39138 | -0.32308 | 18235 ft | 324 kts | 292° |
| 2026-04-30 21:57 | 53.40120 | -0.35708 | 17896 ft | 322 kts | 292° |
| 2026-04-30 21:58 | 53.41092 | -0.39077 | 17588 ft | 320 kts | 292° |
| 2026-04-30 21:58 | 53.42057 | -0.42423 | 17274 ft | 317 kts | 292° |
| 2026-04-30 21:58 | 53.43015 | -0.45749 | 16955 ft | 315 kts | 292° |
| 2026-04-30 21:58 | 53.43966 | -0.49054 | 16679 ft | 313 kts | 292° |
| 2026-04-30 21:59 | 53.44910 | -0.52342 | 16374 ft | 312 kts | 292° |
| 2026-04-30 21:59 | 53.45848 | -0.55613 | 16067 ft | 310 kts | 292° |
| 2026-04-30 21:59 | 53.46780 | -0.58868 | 15764 ft | 309 kts | 292° |
| 2026-04-30 22:00 | 53.48630 | -0.65364 | 15131 ft | 307 kts | 292° |
| 2026-04-30 22:00 | 53.50454 | -0.71774 | 14530 ft | 305 kts | 292° |
| 2026-04-30 22:00 | 53.51367 | -0.74993 | 14227 ft | 305 kts | 292° |
| 2026-04-30 22:01 | 53.52278 | -0.78211 | 13892 ft | 304 kts | 292° |
| 2026-04-30 22:01 | 53.53189 | -0.81418 | 13572 ft | 303 kts | 292° |
| 2026-04-30 22:01 | 53.54096 | -0.84608 | 13247 ft | 302 kts | 292° |
| 2026-04-30 22:01 | 53.55001 | -0.87792 | 12935 ft | 301 kts | 292° |
| 2026-04-30 22:02 | 53.55901 | -0.90957 | 12630 ft | 299 kts | 292° |
| 2026-04-30 22:02 | 53.56795 | -0.94112 | 12328 ft | 297 kts | 291° |
| 2026-04-30 22:02 | 53.57684 | -0.97251 | 12033 ft | 296 kts | 291° |
| 2026-04-30 22:02 | 53.58567 | -1.00371 | 11735 ft | 294 kts | 291° |
| 2026-04-30 22:03 | 53.59445 | -1.03480 | 11459 ft | 293 kts | 291° |
| 2026-04-30 22:03 | 53.60316 | -1.06571 | 11173 ft | 292 kts | 291° |
| 2026-04-30 22:03 | 53.61097 | -1.09703 | 10873 ft | 288 kts | 282° |
| 2026-04-30 22:03 | 53.61571 | -1.12912 | 10605 ft | 284 kts | 278° |
| 2026-04-30 22:04 | 53.61975 | -1.16155 | 10381 ft | 280 kts | 277° |
| 2026-04-30 22:04 | 53.62368 | -1.19320 | 10226 ft | 274 kts | 277° |
| 2026-04-30 22:04 | 53.63154 | -1.25675 | 9744 ft | 281 kts | 277° |
| 2026-04-30 22:05 | 53.63550 | -1.28925 | 9513 ft | 285 kts | 277° |
| 2026-04-30 22:05 | 53.63946 | -1.32214 | 9284 ft | 288 kts | 277° |
| 2026-04-30 22:05 | 53.64343 | -1.35533 | 9057 ft | 288 kts | 277° |
| 2026-04-30 22:05 | 53.64737 | -1.38851 | 8827 ft | 288 kts | 277° |
| 2026-04-30 22:06 | 53.65127 | -1.42149 | 8598 ft | 287 kts | 277° |
| 2026-04-30 22:06 | 53.65895 | -1.48640 | 8136 ft | 279 kts | 277° |
| 2026-04-30 22:06 | 53.66270 | -1.51846 | 7912 ft | 279 kts | 277° |
| 2026-04-30 22:07 | 53.66643 | -1.55047 | 7699 ft | 278 kts | 277° |
| 2026-04-30 22:07 | 53.67161 | -1.58193 | 7468 ft | 282 kts | 294° |
| 2026-04-30 22:07 | 53.68358 | -1.60767 | 7269 ft | 285 kts | 315° |
| 2026-04-30 22:07 | 53.69838 | -1.62996 | 7062 ft | 285 kts | 317° |
| 2026-04-30 22:08 | 53.71340 | -1.65182 | 6847 ft | 285 kts | 318° |
| 2026-04-30 22:08 | 53.72845 | -1.67365 | 6629 ft | 286 kts | 318° |
| 2026-04-30 22:08 | 53.74352 | -1.69544 | 6392 ft | 285 kts | 318° |
| 2026-04-30 22:08 | 53.75856 | -1.71711 | 6165 ft | 284 kts | 318° |
| 2026-04-30 22:09 | 53.77358 | -1.73874 | 5936 ft | 283 kts | 318° |
| 2026-04-30 22:09 | 53.78853 | -1.76019 | 5704 ft | 281 kts | 318° |
| 2026-04-30 22:09 | 53.80342 | -1.78151 | 5477 ft | 276 kts | 318° |
| 2026-04-30 22:09 | 53.81771 | -1.80187 | 5235 ft | 265 kts | 318° |
| 2026-04-30 22:10 | 53.83156 | -1.82152 | 4983 ft | 254 kts | 318° |
| 2026-04-30 22:10 | 53.84470 | -1.84005 | 4751 ft | 244 kts | 318° |
| 2026-04-30 22:10 | 53.85775 | -1.85841 | 4507 ft | 237 kts | 318° |
| 2026-04-30 22:10 | 53.87008 | -1.87579 | 4259 ft | 231 kts | 318° |
| 2026-04-30 22:11 | 53.89526 | -1.91119 | 3843 ft | 236 kts | 318° |
| 2026-04-30 22:11 | 53.90866 | -1.92663 | 3606 ft | 237 kts | 339° |
| 2026-04-30 22:11 | 53.92459 | -1.92955 | 3434 ft | 229 kts | 15° |
| 2026-04-30 22:12 | 53.93834 | -1.91821 | 3308 ft | 216 kts | 45° |
| 2026-04-30 22:12 | 53.94956 | -1.90144 | 3157 ft | 211 kts | 49° |
| 2026-04-30 22:12 | 53.96019 | -1.88509 | 3007 ft | 200 kts | 53° |
| 2026-04-30 22:12 | 53.96643 | -1.86549 | 3015 ft | 182 kts | 85° |
| 2026-04-30 22:13 | 53.96909 | -1.84430 | 2993 ft | 185 kts | 86° |
| 2026-04-30 22:13 | 53.97094 | -1.82286 | 2994 ft | 180 kts | 103° |
| 2026-04-30 22:13 | 53.96549 | -1.80689 | 3001 ft | 150 kts | 150° |
| 2026-04-30 22:13 | 53.95703 | -1.79779 | 2995 ft | 141 kts | 146° |
| 2026-04-30 22:14 | 53.94929 | -1.78782 | 2997 ft | 139 kts | 145° |
| 2026-04-30 22:14 | 53.94186 | -1.77711 | 2878 ft | 141 kts | 142° |
| 2026-04-30 22:14 | 53.93479 | -1.76638 | 2672 ft | 134 kts | 142° |
| 2026-04-30 22:14 | 53.92801 | -1.75599 | 2470 ft | 130 kts | 142° |
| 2026-04-30 22:15 | 53.92136 | -1.74580 | 2259 ft | 125 kts | 141° |
| 2026-04-30 22:15 | 53.91515 | -1.73627 | 2073 ft | 116 kts | 140° |
| 2026-04-30 22:15 | 53.90925 | -1.72721 | 1898 ft | 114 kts | 140° |
| 2026-04-30 22:15 | 53.90331 | -1.71810 | 1733 ft | 117 kts | 140° |
| 2026-04-30 22:16 | 53.89715 | -1.70862 | 1543 ft | 122 kts | 140° |
| 2026-04-30 22:16 | 53.89073 | -1.69888 | 1311 ft | 126 kts | 139° |
| 2026-04-30 22:17 | 53.87012 | -1.66707 | 693 ft | 140 kts | 136° |
| 2026-04-30 22:17 | 53.86382 | -1.65738 | 671 ft | 93 kts | 138° |
| 2026-04-30 22:17 | 53.86265 | -1.65462 | 679 ft | 6 kts | 13° |
| 2026-04-30 22:18 | 53.86317 | -1.65457 | 678 ft | 9 kts | 2° |
| 2026-04-30 22:18 | 53.86517 | -1.65438 | 667 ft | 19 kts | 4° |
| 2026-04-30 22:19 | 53.86757 | -1.65416 | 660 ft | 13 kts | 2° |
| 2026-04-30 22:19 | 53.86812 | -1.65450 | 661 ft | 8 kts | 286° |
| 2026-04-30 22:19 | 53.86843 | -1.65549 | 663 ft | 5 kts | 360° |
| 2026-04-30 22:20 | 53.86871 | -1.65548 | 664 ft | 3 kts | 1° |
| 2026-04-30 22:20 | 53.86876 | -1.65548 | 664 ft | 0 kts | 1° |